sensor_id;sensor_type;location;lat;lon;timestamp;temperature;humidity
11035;DHT22;5571;48.110;-1.706;2023-02-03T00:01:19;9.10;99.90
11035;DHT22;5571;48.110;-1.706;2023-02-03T00:03:46;9.10;99.90
11035;DHT22;5571;48.110;-1.706;2023-02-03T00:06:12;9.10;99.90
11035;DHT22;5571;48.110;-1.706;2023-02-03T00:08:38;9.10;99.90
11035;DHT22;5571;48.110;-1.706;2023-02-03T00:11:04;9.10;99.90
11035;DHT22;5571;48.110;-1.706;2023-02-03T00:13:30;9.10;99.90
11035;DHT22;5571;48.110;-1.706;2023-02-03T00:15:56;9.10;99.90
11035;DHT22;5571;48.110;-1.706;2023-02-03T00:18:21;9.10;99.90
11035;DHT22;5571;48.110;-1.706;2023-02-03T00:20:47;9.10;99.90
11035;DHT22;5571;48.110;-1.706;2023-02-03T00:23:13;9.00;99.90
11035;DHT22;5571;48.110;-1.706;2023-02-03T00:25:45;9.00;99.90
11035;DHT22;5571;48.110;-1.706;2023-02-03T00:28:10;9.00;99.90
11035;DHT22;5571;48.110;-1.706;2023-02-03T00:30:37;9.00;99.90
11035;DHT22;5571;48.110;-1.706;2023-02-03T00:33:03;9.00;99.90
11035;DHT22;5571;48.110;-1.706;2023-02-03T00:35:29;9.00;99.90
11035;DHT22;5571;48.110;-1.706;2023-02-03T00:37:56;9.00;99.90
11035;DHT22;5571;48.110;-1.706;2023-02-03T00:40:25;9.00;99.90
11035;DHT22;5571;48.110;-1.706;2023-02-03T00:42:54;9.00;99.90
11035;DHT22;5571;48.110;-1.706;2023-02-03T00:45:21;9.00;99.90
11035;DHT22;5571;48.110;-1.706;2023-02-03T00:47:47;9.10;99.90
11035;DHT22;5571;48.110;-1.706;2023-02-03T00:50:12;9.10;99.90
11035;DHT22;5571;48.110;-1.706;2023-02-03T00:52:38;9.10;99.90
11035;DHT22;5571;48.110;-1.706;2023-02-03T00:55:05;9.10;99.90
11035;DHT22;5571;48.110;-1.706;2023-02-03T00:57:31;9.10;99.90
11035;DHT22;5571;48.110;-1.706;2023-02-03T00:59:56;9.00;99.90
11035;DHT22;5571;48.110;-1.706;2023-02-03T01:02:23;9.10;99.90
11035;DHT22;5571;48.110;-1.706;2023-02-03T01:04:49;9.00;99.90
11035;DHT22;5571;48.110;-1.706;2023-02-03T01:07:15;9.00;99.90
11035;DHT22;5571;48.110;-1.706;2023-02-03T01:09:40;9.00;99.90
11035;DHT22;5571;48.110;-1.706;2023-02-03T01:12:06;9.00;99.90
11035;DHT22;5571;48.110;-1.706;2023-02-03T01:14:32;9.00;99.90
11035;DHT22;5571;48.110;-1.706;2023-02-03T01:16:59;9.00;99.90
11035;DHT22;5571;48.110;-1.706;2023-02-03T01:19:24;9.00;99.90
11035;DHT22;5571;48.110;-1.706;2023-02-03T01:21:50;9.00;99.90
11035;DHT22;5571;48.110;-1.706;2023-02-03T01:24:16;9.00;99.90
11035;DHT22;5571;48.110;-1.706;2023-02-03T01:26:42;9.00;99.90
11035;DHT22;5571;48.110;-1.706;2023-02-03T01:29:08;9.00;99.90
11035;DHT22;5571;48.110;-1.706;2023-02-03T01:31:36;9.00;99.90
11035;DHT22;5571;48.110;-1.706;2023-02-03T01:34:09;9.00;99.90
11035;DHT22;5571;48.110;-1.706;2023-02-03T01:36:35;9.00;99.90
11035;DHT22;5571;48.110;-1.706;2023-02-03T01:39:02;9.00;99.90
11035;DHT22;5571;48.110;-1.706;2023-02-03T01:41:32;9.00;99.90
11035;DHT22;5571;48.110;-1.706;2023-02-03T01:43:59;9.00;99.90
11035;DHT22;5571;48.110;-1.706;2023-02-03T01:46:37;9.00;99.90
11035;DHT22;5571;48.110;-1.706;2023-02-03T01:49:11;9.00;99.90
11035;DHT22;5571;48.110;-1.706;2023-02-03T01:51:40;9.00;99.90
11035;DHT22;5571;48.110;-1.706;2023-02-03T01:54:10;9.00;99.90
11035;DHT22;5571;48.110;-1.706;2023-02-03T01:56:41;9.00;99.90
11035;DHT22;5571;48.110;-1.706;2023-02-03T01:59:08;9.00;99.90
11035;DHT22;5571;48.110;-1.706;2023-02-03T02:01:34;9.00;99.90
11035;DHT22;5571;48.110;-1.706;2023-02-03T02:04:02;9.00;99.90
11035;DHT22;5571;48.110;-1.706;2023-02-03T02:06:29;9.00;99.90
11035;DHT22;5571;48.110;-1.706;2023-02-03T02:08:56;9.00;99.90
11035;DHT22;5571;48.110;-1.706;2023-02-03T02:11:23;9.00;99.90
11035;DHT22;5571;48.110;-1.706;2023-02-03T02:13:50;9.10;99.90
11035;DHT22;5571;48.110;-1.706;2023-02-03T02:25:26;8.90;99.90
11035;DHT22;5571;48.110;-1.706;2023-02-03T02:28:09;8.90;99.90
11035;DHT22;5571;48.110;-1.706;2023-02-03T02:31:11;8.90;99.90
11035;DHT22;5571;48.110;-1.706;2023-02-03T02:33:52;8.90;99.90
11035;DHT22;5571;48.110;-1.706;2023-02-03T02:36:35;8.90;99.90
11035;DHT22;5571;48.110;-1.706;2023-02-03T02:39:22;8.90;99.90
11035;DHT22;5571;48.110;-1.706;2023-02-03T02:41:59;8.90;99.90
11035;DHT22;5571;48.110;-1.706;2023-02-03T02:44:34;8.90;99.90
11035;DHT22;5571;48.110;-1.706;2023-02-03T02:47:06;8.90;99.90
11035;DHT22;5571;48.110;-1.706;2023-02-03T02:49:43;8.90;99.90
11035;DHT22;5571;48.110;-1.706;2023-02-03T02:52:13;8.90;99.90
11035;DHT22;5571;48.110;-1.706;2023-02-03T02:54:41;8.90;99.90
11035;DHT22;5571;48.110;-1.706;2023-02-03T02:57:10;8.90;99.90
11035;DHT22;5571;48.110;-1.706;2023-02-03T02:59:37;8.90;99.90
11035;DHT22;5571;48.110;-1.706;2023-02-03T03:02:03;8.90;99.90
11035;DHT22;5571;48.110;-1.706;2023-02-03T03:04:30;8.90;99.90
11035;DHT22;5571;48.110;-1.706;2023-02-03T03:07:05;8.90;99.90
11035;DHT22;5571;48.110;-1.706;2023-02-03T03:09:33;8.90;99.90
11035;DHT22;5571;48.110;-1.706;2023-02-03T03:14:36;8.90;99.90
11035;DHT22;5571;48.110;-1.706;2023-02-03T03:17:06;8.90;99.90
11035;DHT22;5571;48.110;-1.706;2023-02-03T03:19:40;8.90;99.90
11035;DHT22;5571;48.110;-1.706;2023-02-03T03:22:08;8.90;99.90
11035;DHT22;5571;48.110;-1.706;2023-02-03T03:24:49;8.90;99.90
11035;DHT22;5571;48.110;-1.706;2023-02-03T03:27:22;8.90;99.90
11035;DHT22;5571;48.110;-1.706;2023-02-03T03:29:55;8.90;99.90
11035;DHT22;5571;48.110;-1.706;2023-02-03T03:32:22;8.90;99.90
11035;DHT22;5571;48.110;-1.706;2023-02-03T03:34:49;8.90;99.90
11035;DHT22;5571;48.110;-1.706;2023-02-03T03:37:23;8.90;99.90
11035;DHT22;5571;48.110;-1.706;2023-02-03T03:39:56;8.90;99.90
11035;DHT22;5571;48.110;-1.706;2023-02-03T03:42:32;8.90;99.90
11035;DHT22;5571;48.110;-1.706;2023-02-03T03:45:18;8.90;99.90
11035;DHT22;5571;48.110;-1.706;2023-02-03T03:47:49;8.80;99.90
11035;DHT22;5571;48.110;-1.706;2023-02-03T03:50:22;8.80;99.90
11035;DHT22;5571;48.110;-1.706;2023-02-03T03:52:50;8.90;99.90
11035;DHT22;5571;48.110;-1.706;2023-02-03T03:55:18;8.90;99.90
11035;DHT22;5571;48.110;-1.706;2023-02-03T03:57:54;8.90;99.90
11035;DHT22;5571;48.110;-1.706;2023-02-03T04:00:24;8.90;99.90
11035;DHT22;5571;48.110;-1.706;2023-02-03T04:02:54;8.90;99.90
11035;DHT22;5571;48.110;-1.706;2023-02-03T04:05:22;8.90;99.90
11035;DHT22;5571;48.110;-1.706;2023-02-03T04:07:48;8.80;99.90
11035;DHT22;5571;48.110;-1.706;2023-02-03T04:12:47;8.80;99.90
11035;DHT22;5571;48.110;-1.706;2023-02-03T04:15:12;8.80;99.90
11035;DHT22;5571;48.110;-1.706;2023-02-03T04:17:38;8.80;99.90
11035;DHT22;5571;48.110;-1.706;2023-02-03T04:20:04;8.80;99.90
11035;DHT22;5571;48.110;-1.706;2023-02-03T04:22:30;8.80;99.90
11035;DHT22;5571;48.110;-1.706;2023-02-03T04:24:55;8.80;99.90
11035;DHT22;5571;48.110;-1.706;2023-02-03T04:27:24;8.80;99.90
11035;DHT22;5571;48.110;-1.706;2023-02-03T04:29:50;8.80;99.90
11035;DHT22;5571;48.110;-1.706;2023-02-03T04:32:16;8.80;99.90
11035;DHT22;5571;48.110;-1.706;2023-02-03T04:34:41;8.80;99.90
11035;DHT22;5571;48.110;-1.706;2023-02-03T04:37:07;8.80;99.90
11035;DHT22;5571;48.110;-1.706;2023-02-03T04:39:33;8.80;99.90
11035;DHT22;5571;48.110;-1.706;2023-02-03T04:41:58;8.80;99.90
11035;DHT22;5571;48.110;-1.706;2023-02-03T04:44:24;8.80;99.90
11035;DHT22;5571;48.110;-1.706;2023-02-03T04:46:49;8.80;99.90
11035;DHT22;5571;48.110;-1.706;2023-02-03T04:49:15;8.80;99.90
11035;DHT22;5571;48.110;-1.706;2023-02-03T04:51:42;8.80;99.90
11035;DHT22;5571;48.110;-1.706;2023-02-03T04:54:09;8.80;99.90
11035;DHT22;5571;48.110;-1.706;2023-02-03T04:56:35;8.80;99.90
11035;DHT22;5571;48.110;-1.706;2023-02-03T04:59:00;8.80;99.90
11035;DHT22;5571;48.110;-1.706;2023-02-03T05:01:26;8.70;99.90
11035;DHT22;5571;48.110;-1.706;2023-02-03T05:03:52;8.70;99.90
11035;DHT22;5571;48.110;-1.706;2023-02-03T05:06:25;8.70;99.90
11035;DHT22;5571;48.110;-1.706;2023-02-03T05:08:51;8.70;99.90
11035;DHT22;5571;48.110;-1.706;2023-02-03T05:11:17;8.70;99.90
11035;DHT22;5571;48.110;-1.706;2023-02-03T05:13:43;8.70;99.90
11035;DHT22;5571;48.110;-1.706;2023-02-03T05:16:09;8.70;99.90
11035;DHT22;5571;48.110;-1.706;2023-02-03T05:18:34;8.70;99.90
11035;DHT22;5571;48.110;-1.706;2023-02-03T05:21:00;8.70;99.90
11035;DHT22;5571;48.110;-1.706;2023-02-03T05:23:25;8.70;99.90
11035;DHT22;5571;48.110;-1.706;2023-02-03T05:25:51;8.70;99.90
11035;DHT22;5571;48.110;-1.706;2023-02-03T05:28:17;8.70;99.90
11035;DHT22;5571;48.110;-1.706;2023-02-03T05:30:42;8.70;99.90
11035;DHT22;5571;48.110;-1.706;2023-02-03T05:33:08;8.70;99.90
11035;DHT22;5571;48.110;-1.706;2023-02-03T05:35:34;8.70;99.90
11035;DHT22;5571;48.110;-1.706;2023-02-03T05:38:00;8.70;99.90
11035;DHT22;5571;48.110;-1.706;2023-02-03T05:40:26;8.70;99.90
11035;DHT22;5571;48.110;-1.706;2023-02-03T05:43:11;8.80;99.90
11035;DHT22;5571;48.110;-1.706;2023-02-03T05:45:37;8.80;99.90
11035;DHT22;5571;48.110;-1.706;2023-02-03T05:48:04;8.80;99.90
11035;DHT22;5571;48.110;-1.706;2023-02-03T05:50:30;8.80;99.90
11035;DHT22;5571;48.110;-1.706;2023-02-03T05:53:03;8.80;99.90
11035;DHT22;5571;48.110;-1.706;2023-02-03T05:55:30;8.80;99.90
11035;DHT22;5571;48.110;-1.706;2023-02-03T05:57:56;8.80;99.90
11035;DHT22;5571;48.110;-1.706;2023-02-03T06:00:23;8.80;99.90
11035;DHT22;5571;48.110;-1.706;2023-02-03T06:02:57;8.80;99.90
11035;DHT22;5571;48.110;-1.706;2023-02-03T06:05:24;8.80;99.90
11035;DHT22;5571;48.110;-1.706;2023-02-03T06:07:50;8.80;99.90
11035;DHT22;5571;48.110;-1.706;2023-02-03T06:10:17;8.80;99.90
11035;DHT22;5571;48.110;-1.706;2023-02-03T06:12:43;8.80;99.90
11035;DHT22;5571;48.110;-1.706;2023-02-03T06:15:09;8.80;99.90
11035;DHT22;5571;48.110;-1.706;2023-02-03T06:17:35;8.80;99.90
11035;DHT22;5571;48.110;-1.706;2023-02-03T06:20:06;8.80;99.90
11035;DHT22;5571;48.110;-1.706;2023-02-03T06:22:31;8.80;99.90
11035;DHT22;5571;48.110;-1.706;2023-02-03T06:24:57;8.80;99.90
11035;DHT22;5571;48.110;-1.706;2023-02-03T06:27:23;8.80;99.90
11035;DHT22;5571;48.110;-1.706;2023-02-03T06:29:49;8.80;99.90
11035;DHT22;5571;48.110;-1.706;2023-02-03T06:32:15;8.80;99.90
11035;DHT22;5571;48.110;-1.706;2023-02-03T06:34:40;8.80;99.90
11035;DHT22;5571;48.110;-1.706;2023-02-03T06:37:06;8.80;99.90
11035;DHT22;5571;48.110;-1.706;2023-02-03T06:39:32;8.80;99.90
11035;DHT22;5571;48.110;-1.706;2023-02-03T06:41:57;8.70;99.90
11035;DHT22;5571;48.110;-1.706;2023-02-03T06:44:23;8.70;99.90
11035;DHT22;5571;48.110;-1.706;2023-02-03T06:46:49;8.70;99.90
11035;DHT22;5571;48.110;-1.706;2023-02-03T06:49:15;8.70;99.90
11035;DHT22;5571;48.110;-1.706;2023-02-03T06:51:45;8.70;99.90
11035;DHT22;5571;48.110;-1.706;2023-02-03T06:54:11;8.70;99.90
11035;DHT22;5571;48.110;-1.706;2023-02-03T06:56:37;8.60;99.90
11035;DHT22;5571;48.110;-1.706;2023-02-03T06:59:03;8.70;99.90
11035;DHT22;5571;48.110;-1.706;2023-02-03T07:01:29;8.70;99.90
11035;DHT22;5571;48.110;-1.706;2023-02-03T07:03:56;8.70;99.90
11035;DHT22;5571;48.110;-1.706;2023-02-03T07:06:26;8.60;99.90
11035;DHT22;5571;48.110;-1.706;2023-02-03T07:08:55;8.70;99.90
11035;DHT22;5571;48.110;-1.706;2023-02-03T07:11:21;8.60;99.90
11035;DHT22;5571;48.110;-1.706;2023-02-03T07:13:47;8.60;99.90
11035;DHT22;5571;48.110;-1.706;2023-02-03T07:16:13;8.60;99.90
11035;DHT22;5571;48.110;-1.706;2023-02-03T07:18:38;8.60;99.90
11035;DHT22;5571;48.110;-1.706;2023-02-03T07:21:05;8.60;99.90
11035;DHT22;5571;48.110;-1.706;2023-02-03T07:23:31;8.70;99.90
11035;DHT22;5571;48.110;-1.706;2023-02-03T07:26:01;8.70;99.90
11035;DHT22;5571;48.110;-1.706;2023-02-03T07:28:27;8.70;99.90
11035;DHT22;5571;48.110;-1.706;2023-02-03T07:30:53;8.70;99.90
11035;DHT22;5571;48.110;-1.706;2023-02-03T07:33:19;8.70;99.90
11035;DHT22;5571;48.110;-1.706;2023-02-03T07:35:53;8.70;99.90
11035;DHT22;5571;48.110;-1.706;2023-02-03T07:38:20;8.70;99.90
11035;DHT22;5571;48.110;-1.706;2023-02-03T07:40:46;8.70;99.90
11035;DHT22;5571;48.110;-1.706;2023-02-03T07:43:12;8.70;99.90
11035;DHT22;5571;48.110;-1.706;2023-02-03T07:45:37;8.70;99.90
11035;DHT22;5571;48.110;-1.706;2023-02-03T07:48:03;8.70;99.90
11035;DHT22;5571;48.110;-1.706;2023-02-03T07:50:29;8.80;99.90
11035;DHT22;5571;48.110;-1.706;2023-02-03T07:52:54;8.80;99.90
11035;DHT22;5571;48.110;-1.706;2023-02-03T07:55:21;8.80;99.90
11035;DHT22;5571;48.110;-1.706;2023-02-03T07:57:47;8.80;99.90
11035;DHT22;5571;48.110;-1.706;2023-02-03T08:00:14;8.80;99.90
11035;DHT22;5571;48.110;-1.706;2023-02-03T08:02:40;8.80;99.90
11035;DHT22;5571;48.110;-1.706;2023-02-03T08:05:06;8.80;99.90
11035;DHT22;5571;48.110;-1.706;2023-02-03T08:07:32;8.80;99.90
11035;DHT22;5571;48.110;-1.706;2023-02-03T08:09:58;8.80;99.90
11035;DHT22;5571;48.110;-1.706;2023-02-03T08:12:23;8.90;99.90
11035;DHT22;5571;48.110;-1.706;2023-02-03T08:14:49;8.90;99.90
11035;DHT22;5571;48.110;-1.706;2023-02-03T08:17:15;8.90;99.90
11035;DHT22;5571;48.110;-1.706;2023-02-03T08:19:40;8.90;99.90
11035;DHT22;5571;48.110;-1.706;2023-02-03T08:22:06;8.90;99.90
11035;DHT22;5571;48.110;-1.706;2023-02-03T08:24:32;8.90;99.90
11035;DHT22;5571;48.110;-1.706;2023-02-03T08:26:57;8.90;99.90
11035;DHT22;5571;48.110;-1.706;2023-02-03T08:29:24;8.90;99.90
11035;DHT22;5571;48.110;-1.706;2023-02-03T08:31:49;8.90;99.90
11035;DHT22;5571;48.110;-1.706;2023-02-03T08:34:15;8.90;99.90
11035;DHT22;5571;48.110;-1.706;2023-02-03T08:36:40;9.00;99.90
11035;DHT22;5571;48.110;-1.706;2023-02-03T08:39:08;9.00;99.90
11035;DHT22;5571;48.110;-1.706;2023-02-03T08:41:33;9.00;99.90
11035;DHT22;5571;48.110;-1.706;2023-02-03T08:44:00;9.00;99.90
11035;DHT22;5571;48.110;-1.706;2023-02-03T08:46:26;9.00;99.90
11035;DHT22;5571;48.110;-1.706;2023-02-03T08:48:53;9.00;99.90
11035;DHT22;5571;48.110;-1.706;2023-02-03T08:51:21;9.00;99.90
11035;DHT22;5571;48.110;-1.706;2023-02-03T08:53:47;9.00;99.90
11035;DHT22;5571;48.110;-1.706;2023-02-03T08:56:13;9.10;99.90
11035;DHT22;5571;48.110;-1.706;2023-02-03T08:58:38;9.10;99.90
11035;DHT22;5571;48.110;-1.706;2023-02-03T09:01:10;9.10;99.90
11035;DHT22;5571;48.110;-1.706;2023-02-03T09:03:36;9.10;99.90
11035;DHT22;5571;48.110;-1.706;2023-02-03T09:06:02;9.20;99.90
11035;DHT22;5571;48.110;-1.706;2023-02-03T09:08:29;9.20;99.90
11035;DHT22;5571;48.110;-1.706;2023-02-03T09:10:54;9.30;99.90
11035;DHT22;5571;48.110;-1.706;2023-02-03T09:13:20;9.30;99.90
11035;DHT22;5571;48.110;-1.706;2023-02-03T09:15:46;9.30;99.90
11035;DHT22;5571;48.110;-1.706;2023-02-03T09:18:12;9.30;99.90
11035;DHT22;5571;48.110;-1.706;2023-02-03T09:20:37;9.40;99.90
11035;DHT22;5571;48.110;-1.706;2023-02-03T09:23:03;9.30;99.90
11035;DHT22;5571;48.110;-1.706;2023-02-03T09:25:28;9.40;99.90
11035;DHT22;5571;48.110;-1.706;2023-02-03T09:27:54;9.40;99.90
11035;DHT22;5571;48.110;-1.706;2023-02-03T09:30:19;9.50;99.90
11035;DHT22;5571;48.110;-1.706;2023-02-03T09:32:45;9.50;99.90
11035;DHT22;5571;48.110;-1.706;2023-02-03T09:35:14;9.50;99.90
11035;DHT22;5571;48.110;-1.706;2023-02-03T09:37:39;9.50;99.90
11035;DHT22;5571;48.110;-1.706;2023-02-03T09:40:06;9.50;99.90
11035;DHT22;5571;48.110;-1.706;2023-02-03T09:42:58;9.50;99.90
11035;DHT22;5571;48.110;-1.706;2023-02-03T09:45:29;9.50;99.90
11035;DHT22;5571;48.110;-1.706;2023-02-03T09:48:01;9.50;99.90
11035;DHT22;5571;48.110;-1.706;2023-02-03T09:50:30;9.50;99.90
11035;DHT22;5571;48.110;-1.706;2023-02-03T09:52:58;9.50;99.90
11035;DHT22;5571;48.110;-1.706;2023-02-03T09:55:38;9.50;99.90
11035;DHT22;5571;48.110;-1.706;2023-02-03T09:58:13;9.60;99.90
11035;DHT22;5571;48.110;-1.706;2023-02-03T10:00:56;9.60;99.90
11035;DHT22;5571;48.110;-1.706;2023-02-03T10:03:43;9.70;99.90
11035;DHT22;5571;48.110;-1.706;2023-02-03T10:06:35;9.80;99.90
11035;DHT22;5571;48.110;-1.706;2023-02-03T10:18:12;10.40;99.90
11035;DHT22;5571;48.110;-1.706;2023-02-03T10:20:42;10.60;99.90
11035;DHT22;5571;48.110;-1.706;2023-02-03T10:23:33;10.70;99.90
11035;DHT22;5571;48.110;-1.706;2023-02-03T10:26:02;10.60;99.90
11035;DHT22;5571;48.110;-1.706;2023-02-03T10:28:31;10.60;99.90
11035;DHT22;5571;48.110;-1.706;2023-02-03T10:31:01;10.60;99.90
11035;DHT22;5571;48.110;-1.706;2023-02-03T10:33:32;10.40;99.90
11035;DHT22;5571;48.110;-1.706;2023-02-03T10:38:51;10.30;99.90
11035;DHT22;5571;48.110;-1.706;2023-02-03T10:41:19;10.40;99.90
11035;DHT22;5571;48.110;-1.706;2023-02-03T10:43:46;10.40;99.90
11035;DHT22;5571;48.110;-1.706;2023-02-03T10:46:37;10.50;99.90
11035;DHT22;5571;48.110;-1.706;2023-02-03T10:49:03;10.50;99.90
11035;DHT22;5571;48.110;-1.706;2023-02-03T10:51:35;10.60;99.90
11035;DHT22;5571;48.110;-1.706;2023-02-03T10:54:01;10.70;99.90
11035;DHT22;5571;48.110;-1.706;2023-02-03T10:56:31;10.80;99.90
11035;DHT22;5571;48.110;-1.706;2023-02-03T10:58:59;10.90;99.90
11035;DHT22;5571;48.110;-1.706;2023-02-03T11:06:20;10.90;99.90
11035;DHT22;5571;48.110;-1.706;2023-02-03T11:08:48;10.90;99.90
11035;DHT22;5571;48.110;-1.706;2023-02-03T11:11:34;10.90;99.90
11035;DHT22;5571;48.110;-1.706;2023-02-03T11:16:29;10.90;99.90
11035;DHT22;5571;48.110;-1.706;2023-02-03T11:24:31;11.00;99.90
11035;DHT22;5571;48.110;-1.706;2023-02-03T11:27:00;11.10;99.90
11035;DHT22;5571;48.110;-1.706;2023-02-03T11:29:37;11.20;99.90
11035;DHT22;5571;48.110;-1.706;2023-02-03T11:35:16;11.30;99.90
11035;DHT22;5571;48.110;-1.706;2023-02-03T11:38:01;11.20;99.90
11035;DHT22;5571;48.110;-1.706;2023-02-03T11:40:28;11.20;99.90
11035;DHT22;5571;48.110;-1.706;2023-02-03T11:45:27;11.40;99.90
11035;DHT22;5571;48.110;-1.706;2023-02-03T11:53:31;12.90;99.90
11035;DHT22;5571;48.110;-1.706;2023-02-03T12:14:48;15.60;99.90
11035;DHT22;5571;48.110;-1.706;2023-02-03T12:23:25;15.30;99.90
11035;DHT22;5571;48.110;-1.706;2023-02-03T12:27:00;14.60;99.90
11035;DHT22;5571;48.110;-1.706;2023-02-03T12:29:21;13.80;99.90
11035;DHT22;5571;48.110;-1.706;2023-02-03T12:34:39;12.70;99.90
11035;DHT22;5571;48.110;-1.706;2023-02-03T12:37:11;12.60;99.90
11035;DHT22;5571;48.110;-1.706;2023-02-03T12:39:58;12.40;99.90
11035;DHT22;5571;48.110;-1.706;2023-02-03T12:42:40;12.10;99.90
11035;DHT22;5571;48.110;-1.706;2023-02-03T12:45:13;12.00;99.90
11035;DHT22;5571;48.110;-1.706;2023-02-03T12:50:49;11.70;99.90
11035;DHT22;5571;48.110;-1.706;2023-02-03T12:53:41;11.60;99.90
11035;DHT22;5571;48.110;-1.706;2023-02-03T12:56:12;11.50;99.90
11035;DHT22;5571;48.110;-1.706;2023-02-03T12:58:54;11.40;99.90
11035;DHT22;5571;48.110;-1.706;2023-02-03T13:01:42;11.40;99.90
11035;DHT22;5571;48.110;-1.706;2023-02-03T13:04:28;11.30;99.90
11035;DHT22;5571;48.110;-1.706;2023-02-03T13:10:17;11.30;99.90
11035;DHT22;5571;48.110;-1.706;2023-02-03T13:12:50;11.20;99.90
11035;DHT22;5571;48.110;-1.706;2023-02-03T13:15:43;11.20;99.90
11035;DHT22;5571;48.110;-1.706;2023-02-03T13:18:24;11.10;99.90
11035;DHT22;5571;48.110;-1.706;2023-02-03T13:20:51;11.10;99.90
11035;DHT22;5571;48.110;-1.706;2023-02-03T13:23:18;11.10;99.90
11035;DHT22;5571;48.110;-1.706;2023-02-03T13:29:14;11.10;99.90
11035;DHT22;5571;48.110;-1.706;2023-02-03T13:31:51;11.00;99.90
11035;DHT22;5571;48.110;-1.706;2023-02-03T13:40:19;11.00;99.90
11035;DHT22;5571;48.110;-1.706;2023-02-03T13:42:57;11.10;99.90
11035;DHT22;5571;48.110;-1.706;2023-02-03T13:45:31;11.10;99.90
11035;DHT22;5571;48.110;-1.706;2023-02-03T13:48:13;11.10;99.90
11035;DHT22;5571;48.110;-1.706;2023-02-03T13:50:40;11.10;99.90
11035;DHT22;5571;48.110;-1.706;2023-02-03T13:53:21;11.10;99.90
11035;DHT22;5571;48.110;-1.706;2023-02-03T13:55:57;11.20;99.90
11035;DHT22;5571;48.110;-1.706;2023-02-03T13:58:27;11.20;99.90
11035;DHT22;5571;48.110;-1.706;2023-02-03T14:05:54;11.20;99.90
11035;DHT22;5571;48.110;-1.706;2023-02-03T14:16:44;11.20;99.90
11035;DHT22;5571;48.110;-1.706;2023-02-03T14:22:06;11.20;99.90
11035;DHT22;5571;48.110;-1.706;2023-02-03T14:24:38;11.30;99.90
11035;DHT22;5571;48.110;-1.706;2023-02-03T14:27:18;11.40;99.90
11035;DHT22;5571;48.110;-1.706;2023-02-03T14:29:45;11.40;99.90
11035;DHT22;5571;48.110;-1.706;2023-02-03T14:35:31;11.30;99.90
11035;DHT22;5571;48.110;-1.706;2023-02-03T14:38:05;11.30;99.90
11035;DHT22;5571;48.110;-1.706;2023-02-03T14:52:27;11.40;99.90
11035;DHT22;5571;48.110;-1.706;2023-02-03T14:58:00;11.50;99.90
11035;DHT22;5571;48.110;-1.706;2023-02-03T15:00:33;11.50;99.90
11035;DHT22;5571;48.110;-1.706;2023-02-03T15:05:36;11.50;99.90
11035;DHT22;5571;48.110;-1.706;2023-02-03T15:08:03;11.50;99.90
11035;DHT22;5571;48.110;-1.706;2023-02-03T15:13:03;11.50;99.90
11035;DHT22;5571;48.110;-1.706;2023-02-03T15:15:31;11.50;99.90
11035;DHT22;5571;48.110;-1.706;2023-02-03T15:18:18;11.40;99.90
11035;DHT22;5571;48.110;-1.706;2023-02-03T15:20:45;11.40;99.90
11035;DHT22;5571;48.110;-1.706;2023-02-03T15:23:20;11.40;99.90
11035;DHT22;5571;48.110;-1.706;2023-02-03T15:25:55;11.40;99.90
11035;DHT22;5571;48.110;-1.706;2023-02-03T15:28:23;11.30;99.90
11035;DHT22;5571;48.110;-1.706;2023-02-03T15:33:37;11.30;99.90
11035;DHT22;5571;48.110;-1.706;2023-02-03T15:36:25;11.30;99.90
11035;DHT22;5571;48.110;-1.706;2023-02-03T15:39:01;11.20;99.90
11035;DHT22;5571;48.110;-1.706;2023-02-03T15:41:30;11.20;99.90
11035;DHT22;5571;48.110;-1.706;2023-02-03T15:44:10;11.10;99.90
11035;DHT22;5571;48.110;-1.706;2023-02-03T15:46:44;11.10;99.90
11035;DHT22;5571;48.110;-1.706;2023-02-03T15:49:20;11.10;99.90
11035;DHT22;5571;48.110;-1.706;2023-02-03T15:51:49;11.10;99.90
11035;DHT22;5571;48.110;-1.706;2023-02-03T15:54:22;11.10;99.90
11035;DHT22;5571;48.110;-1.706;2023-02-03T15:57:04;11.10;99.90
11035;DHT22;5571;48.110;-1.706;2023-02-03T16:02:16;11.10;99.90
11035;DHT22;5571;48.110;-1.706;2023-02-03T16:04:43;11.00;99.90
11035;DHT22;5571;48.110;-1.706;2023-02-03T16:07:20;11.00;99.90
11035;DHT22;5571;48.110;-1.706;2023-02-03T16:09:51;11.00;99.90
11035;DHT22;5571;48.110;-1.706;2023-02-03T16:12:27;11.00;99.90
11035;DHT22;5571;48.110;-1.706;2023-02-03T16:14:56;11.00;99.90
11035;DHT22;5571;48.110;-1.706;2023-02-03T16:19:48;11.00;99.90
11035;DHT22;5571;48.110;-1.706;2023-02-03T16:22:29;11.00;99.90
11035;DHT22;5571;48.110;-1.706;2023-02-03T16:24:56;10.90;99.90
11035;DHT22;5571;48.110;-1.706;2023-02-03T16:30:16;10.90;99.90
11035;DHT22;5571;48.110;-1.706;2023-02-03T16:33:14;10.90;99.90
11035;DHT22;5571;48.110;-1.706;2023-02-03T16:36:13;10.80;99.90
11035;DHT22;5571;48.110;-1.706;2023-02-03T16:39:00;10.80;99.90
11035;DHT22;5571;48.110;-1.706;2023-02-03T16:41:45;10.80;99.90
11035;DHT22;5571;48.110;-1.706;2023-02-03T16:44:29;10.80;99.90
11035;DHT22;5571;48.110;-1.706;2023-02-03T16:47:25;10.80;99.90
11035;DHT22;5571;48.110;-1.706;2023-02-03T16:52:58;10.70;99.90
11035;DHT22;5571;48.110;-1.706;2023-02-03T16:55:23;10.70;99.90
11035;DHT22;5571;48.110;-1.706;2023-02-03T16:57:49;10.70;99.90
11035;DHT22;5571;48.110;-1.706;2023-02-03T17:00:16;10.70;99.90
11035;DHT22;5571;48.110;-1.706;2023-02-03T17:02:42;10.70;99.90
11035;DHT22;5571;48.110;-1.706;2023-02-03T17:05:07;10.70;99.90
11035;DHT22;5571;48.110;-1.706;2023-02-03T17:07:33;10.70;99.90
11035;DHT22;5571;48.110;-1.706;2023-02-03T17:09:59;10.70;99.90
11035;DHT22;5571;48.110;-1.706;2023-02-03T17:12:24;10.70;99.90
11035;DHT22;5571;48.110;-1.706;2023-02-03T17:14:55;10.70;99.90
11035;DHT22;5571;48.110;-1.706;2023-02-03T17:17:22;10.70;99.90
11035;DHT22;5571;48.110;-1.706;2023-02-03T17:19:47;10.70;99.90
11035;DHT22;5571;48.110;-1.706;2023-02-03T17:22:13;10.70;99.90
11035;DHT22;5571;48.110;-1.706;2023-02-03T17:24:38;10.70;99.90
11035;DHT22;5571;48.110;-1.706;2023-02-03T17:27:04;10.70;99.90
11035;DHT22;5571;48.110;-1.706;2023-02-03T17:29:29;10.60;99.90
11035;DHT22;5571;48.110;-1.706;2023-02-03T17:31:55;10.70;99.90
11035;DHT22;5571;48.110;-1.706;2023-02-03T17:34:21;10.60;99.90
11035;DHT22;5571;48.110;-1.706;2023-02-03T17:36:46;10.60;99.90
11035;DHT22;5571;48.110;-1.706;2023-02-03T17:39:12;10.60;99.90
11035;DHT22;5571;48.110;-1.706;2023-02-03T17:41:37;10.60;99.90
11035;DHT22;5571;48.110;-1.706;2023-02-03T17:44:03;10.60;99.90
11035;DHT22;5571;48.110;-1.706;2023-02-03T17:46:29;10.60;99.90
11035;DHT22;5571;48.110;-1.706;2023-02-03T17:48:54;10.60;99.90
11035;DHT22;5571;48.110;-1.706;2023-02-03T17:51:22;10.60;99.90
11035;DHT22;5571;48.110;-1.706;2023-02-03T17:53:55;10.60;99.90
11035;DHT22;5571;48.110;-1.706;2023-02-03T17:56:23;10.60;99.90
11035;DHT22;5571;48.110;-1.706;2023-02-03T17:58:57;10.60;99.90
11035;DHT22;5571;48.110;-1.706;2023-02-03T18:01:23;10.50;99.90
11035;DHT22;5571;48.110;-1.706;2023-02-03T18:03:53;10.50;99.90
11035;DHT22;5571;48.110;-1.706;2023-02-03T18:06:20;10.50;99.90
11035;DHT22;5571;48.110;-1.706;2023-02-03T18:08:46;10.60;99.90
11035;DHT22;5571;48.110;-1.706;2023-02-03T18:11:13;10.50;99.90
11035;DHT22;5571;48.110;-1.706;2023-02-03T18:13:41;10.50;99.90
11035;DHT22;5571;48.110;-1.706;2023-02-03T18:16:10;10.50;99.90
11035;DHT22;5571;48.110;-1.706;2023-02-03T18:18:37;10.50;99.90
11035;DHT22;5571;48.110;-1.706;2023-02-03T18:21:06;10.50;99.90
11035;DHT22;5571;48.110;-1.706;2023-02-03T18:23:33;10.50;99.90